Time;durP1;ratioP1;P1;durP2;ratioP2;P2;SDS_P1;SDS_P2;PMS_P1;PMS_P2;Temp;Humidity;BMP_temperature;BMP_pressure;BME280_temperature;BME280_humidity;BME280_pressure;Samples;Min_cycle;Max_cycle;Signal;HPM_P1;HPM_P2
2022/08/12 00:51:19;;;;;;;;;;;;;;;;;;21088723;28;20022;-73
2022/08/12 01:01:21;;;;;;;;;;;;;;;;;;21088101;28;19970;-64
2022/08/12 01:11:30;;;;;;;;;;;;;;;;;;21089825;28;19924;-75
2022/08/12 01:21:32;;;;;;;;;;;;;;;;;;21085978;28;20019;-72
2022/08/12 01:31:36;;;;;;;;;;;;;;;;;;21087474;28;20295;-75
2022/08/12 01:41:41;;;;;;;;;;;;;;;;;;21105263;28;20403;-67
2022/08/12 01:51:47;;;;;;;;;;;;;;;;;;21083589;28;19997;-74
2022/08/12 02:01:50;;;;;;;;;;;;;;;;;;21082904;28;19986;-73
2022/08/12 02:11:58;;;;;;;;;;;;;;;;;;21082525;28;20319;-73
2022/08/12 02:22:05;;;;;;;;;;;;;;;;;;21081015;28;20019;-70
2022/08/12 02:32:11;;;;;;;;;;;;;;;;;;21079723;28;19930;-74
2022/08/12 02:42:14;;;;;;;;;;;;;;;;;;21079716;28;19931;-74
2022/08/12 02:52:17;;;;;;;;;;;;;;;;;;21079676;28;19924;-75
2022/08/12 03:02:20;;;;;;;;;;;;;;;;;;21079509;28;19924;-55
2022/08/12 03:12:23;;;;;;;;;;;;;;;;;;21078739;28;19947;-57
2022/08/12 03:22:28;;;;;;;;;;;;;;;;;;21078456;28;19924;-75
2022/08/12 03:32:37;;;;;;;;;;;;;;;;;;21078692;28;19932;-59
2022/08/12 03:42:40;;;;;;;;;;;;;;;;;;21079338;28;20377;-75
2022/08/12 04:03:50;;;;;;;;;;;;;;;;;;21093192;28;19981;-59
2022/08/12 04:13:25;;;;;;;;;;;;;;;;;;21091899;28;19924;-71
2022/08/12 04:23:28;;;;;;;;;;;;;;;;;;21091060;28;19924;-73
2022/08/12 04:33:31;;;;;;;;;;;;;;;;;;21089844;28;20289;-61
2022/08/12 04:43:34;;;;;;;;;;;;;;;;;;21089087;28;19979;-66
2022/08/12 04:53:38;;;;;;;;;;;;;;;;;;21088656;28;19948;-75
2022/08/12 05:04:01;;;;;;;;;;;;;;;;;;21088169;28;20368;-57
2022/08/12 05:14:20;;;;;;;;;;;;;;;;;;21093976;28;19924;-60
2022/08/12 05:24:26;;;;;;;;;;;;;;;;;;21086659;28;20388;-74
2022/08/12 05:34:31;;;;;;;;;;;;;;;;;;21089279;28;19963;-58
2022/08/12 05:44:34;;;;;;;;;;;;;;;;;;21084299;28;20313;-61
2022/08/12 05:54:42;;;;;;;;;;;;;;;;;;21083007;28;20011;-74
2022/08/12 06:04:44;;;;;;;;;;;;;;;;;;21081097;28;19929;-64
2022/08/12 06:14:47;;;;;;;;;;;;;;;;;;21079918;28;19977;-72
2022/08/12 06:24:51;;;;;;;;;;;;;;;;;;21081670;28;19947;-55
2022/08/12 06:34:55;;;;;;;;;;;;;;;;;;21079771;28;19928;-68
2022/08/12 06:44:57;;;;;;;;;;;;;;;;;;21079343;28;20368;-71
2022/08/12 06:54:59;;;;;;;;;;;;;;;;;;21081158;28;19931;-73
2022/08/12 07:05:01;;;;;;;;;;;;;;;;;;21110079;28;19924;-70
2022/08/12 07:15:04;;;;;;;;;;;;;;;;;;21080346;28;19936;-57
2022/08/12 07:35:27;;;;;;;;;;;;;;;;;;21095678;28;19974;-70
2022/08/12 07:45:29;;;;;;;;;;;;;;;;;;21094102;28;20300;-57
2022/08/12 07:55:31;;;;;;;;;;;;;;;;;;21094331;28;20016;-58
2022/08/12 08:05:45;;;;;;;;;;;;;;;;;;21092423;28;20353;-57
2022/08/12 08:15:48;;;;;;;;;;;;;;;;;;21092925;28;20013;-73
2022/08/12 08:25:51;;;;;;;;;;;;;;;;;;21091153;28;19928;-58
2022/08/12 08:35:52;;;;;;;;;;;;;;;;;;21089538;28;19924;-56
2022/08/12 08:45:55;;;;;;;;;;;;;;;;;;21090986;28;20030;-59
2022/08/12 08:55:58;;;;;;;;;;;;;;;;;;21105585;28;20003;-56
2022/08/12 09:06:00;;;;;;;;;;;;;;;;;;21087870;28;19924;-73
2022/08/12 09:16:05;;;;;;;;;;;;;;;;;;21088261;28;20372;-66
2022/08/12 09:26:08;;;;;;;;;;;;;;;;;;21086782;28;20380;-70
2022/08/12 09:36:09;;;;;;;;;;;;;;;;;;21085877;28;19924;-72
2022/08/12 09:46:15;;;;;;;;;;;;;;;;;;21083843;28;19978;-72
2022/08/12 09:56:18;;;;;;;;;;;;;;;;;;21090287;28;20296;-64
2022/08/12 10:06:19;;;;;;;;;;;;;;;;;;21089814;28;20037;-60
2022/08/12 10:16:21;;;;;;;;;;;;;;;;;;21083107;28;19977;-62
2022/08/12 10:36:46;;;;;;;;;;;;;;;;;;21081009;28;19928;-68
2022/08/12 10:46:50;;;;;;;;;;;;;;;;;;21080501;28;19924;-59
2022/08/12 10:56:52;;;;;;;;;;;;;;;;;;21084719;28;20043;-76
2022/08/12 11:06:55;;;;;;;;;;;;;;;;;;21079787;28;19935;-74
2022/08/12 11:16:59;;;;;;;;;;;;;;;;;;21078384;28;21330;-74
2022/08/12 11:27:01;;;;;;;;;;;;;;;;;;21078756;28;19975;-74
2022/08/12 11:37:04;;;;;;;;;;;;;;;;;;21078118;28;19924;-67
2022/08/12 11:47:06;;;;;;;;;;;;;;;;;;21078561;28;19924;-71
2022/08/12 11:57:08;;;;;;;;;;;;;;;;;;21078339;28;19924;-77
2022/08/12 12:07:10;;;;;;;;;;;;;;;;;;21084664;28;19924;-58
2022/08/12 12:17:11;;;;;;;;;;;;;;;;;;21095317;28;19928;-64
2022/08/12 12:27:13;;;;;;;;;;;;;;;;;;21094711;28;19924;-57
2022/08/12 12:37:15;;;;;;;;;;;;;;;;;;21093730;28;19942;-77
2022/08/12 12:47:16;;;;;;;;;;;;;;;;;;21098760;28;19931;-77
2022/08/12 12:57:18;;;;;;;;;;;;;;;;;;21105976;28;19954;-77
2022/08/12 13:07:20;;;;;;;;;;;;;;;;;;21093179;28;19924;-76
2022/08/12 13:17:21;;;;;;;;;;;;;;;;;;21092332;28;19924;-77
2022/08/12 13:27:25;;;;;;;;;;;;;;;;;;21089302;28;20018;-69
2022/08/12 13:37:27;;;;;;;;;;;;;;;;;;21088228;28;20034;-77
2022/08/12 13:47:29;;;;;;;;;;;;;;;;;;21089617;28;19924;-77
2022/08/12 13:57:31;;;;;;;;;;;;;;;;;;21087003;28;19931;-66
2022/08/12 14:07:36;;;;;;;;;;;;;;;;;;21085483;28;19931;-65
2022/08/12 14:17:38;;;;;;;;;;;;;;;;;;21087129;28;20380;-75
2022/08/12 14:27:40;;;;;;;;;;;;;;;;;;21083381;28;19968;-72
2022/08/12 14:37:42;;;;;;;;;;;;;;;;;;21085372;28;20368;-57
2022/08/12 14:47:44;;;;;;;;;;;;;;;;;;21085841;28;19951;-72
2022/08/12 14:57:45;;;;;;;;;;;;;;;;;;21089334;28;19924;-79
2022/08/12 15:07:48;;;;;;;;;;;;;;;;;;21083062;28;19951;-77
2022/08/12 15:17:49;;;;;;;;;;;;;;;;;;21114549;28;19924;-79
2022/08/12 15:27:52;;;;;;;;;;;;;;;;;;21133456;28;19959;-57
2022/08/12 15:37:53;;;;;;;;;;;;;;;;;;21124395;28;19931;-78
2022/08/12 15:47:55;;;;;;;;;;;;;;;;;;21101343;28;19982;-61
2022/08/12 15:57:57;;;;;;;;;;;;;;;;;;21099718;28;19943;-64
2022/08/12 16:07:59;;;;;;;;;;;;;;;;;;21104246;28;19963;-57
2022/08/12 16:18:01;;;;;;;;;;;;;;;;;;21099603;28;19958;-75
2022/08/12 16:28:03;;;;;;;;;;;;;;;;;;21092227;28;19924;-79
2022/08/12 16:38:04;;;;;;;;;;;;;;;;;;21094673;28;20023;-72
2022/08/12 16:48:06;;;;;;;;;;;;;;;;;;21106320;28;19924;-79
2022/08/12 16:58:13;;;;;;;;;;;;;;;;;;21103689;28;19924;-78
2022/08/12 17:08:15;;;;;;;;;;;;;;;;;;21153200;28;19928;-61
2022/08/12 17:18:17;;;;;;;;;;;;;;;;;;21152863;28;19927;-62
2022/08/12 17:28:20;;;;;;;;;;;;;;;;;;21122480;28;19938;-74
2022/08/12 17:38:22;;;;;;;;;;;;;;;;;;21091903;28;19931;-61
2022/08/12 17:48:25;;;;;;;;;;;;;;;;;;21090627;28;19931;-58
2022/08/12 17:58:30;;;;;;;;;;;;;;;;;;21090151;28;20401;-58
2022/08/12 18:08:32;;;;;;;;;;;;;;;;;;21083717;28;20428;-57
2022/08/12 18:18:34;;;;;;;;;;;;;;;;;;21087559;28;20307;-59
2022/08/12 18:28:41;;;;;;;;;;;;;;;;;;21090465;28;19931;-72
2022/08/12 18:38:43;;;;;;;;;;;;;;;;;;21083629;28;19924;-79
2022/08/12 18:48:45;;;;;;;;;;;;;;;;;;21081272;28;19935;-78
2022/08/12 18:58:48;;;;;;;;;;;;;;;;;;21083146;28;20295;-76
2022/08/12 19:08:49;;;;;;;;;;;;;;;;;;21080904;28;20019;-77
2022/08/12 19:18:52;;;;;;;;;;;;;;;;;;21079936;28;19985;-62
2022/08/12 19:28:56;;;;;;;;;;;;;;;;;;21080588;28;20439;-72
2022/08/12 19:38:58;;;;;;;;;;;;;;;;;;21092954;28;19935;-76
2022/08/12 19:49:00;;;;;;;;;;;;;;;;;;21084071;28;20023;-79
2022/08/12 20:09:22;;;;;;;;;;;;;;;;;;21081948;28;20353;-77
2022/08/12 20:19:24;;;;;;;;;;;;;;;;;;21082958;28;19932;-70
2022/08/12 20:29:27;;;;;;;;;;;;;;;;;;21095585;28;20355;-76
2022/08/12 20:39:28;;;;;;;;;;;;;;;;;;21095568;28;19932;-79
2022/08/12 20:49:32;;;;;;;;;;;;;;;;;;21090238;28;19924;-80
2022/08/12 20:59:37;;;;;;;;;;;;;;;;;;21090604;28;20351;-61
2022/08/12 21:09:39;;;;;;;;;;;;;;;;;;21090120;28;20015;-77
2022/08/12 21:19:41;;;;;;;;;;;;;;;;;;21089318;28;19924;-77
2022/08/12 21:29:44;;;;;;;;;;;;;;;;;;21087517;28;19974;-77
2022/08/12 21:39:45;;;;;;;;;;;;;;;;;;21087771;28;20002;-74
2022/08/12 21:49:47;;;;;;;;;;;;;;;;;;21088041;28;20355;-71
2022/08/12 21:59:49;;;;;;;;;;;;;;;;;;21097036;28;19924;-77
2022/08/12 22:09:52;;;;;;;;;;;;;;;;;;21089941;28;20376;-78
2022/08/12 22:19:54;;;;;;;;;;;;;;;;;;21086450;28;19925;-73
2022/08/12 22:40:16;;;;;;;;;;;;;;;;;;21089154;28;20037;-69
2022/08/12 22:50:18;;;;;;;;;;;;;;;;;;21082678;28;19924;-75
2022/08/12 23:00:20;;;;;;;;;;;;;;;;;;21080855;28;19951;-75
2022/08/12 23:10:22;;;;;;;;;;;;;;;;;;21080246;28;19931;-57
2022/08/12 23:20:26;;;;;;;;;;;;;;;;;;21081158;28;20415;-78
2022/08/12 23:30:28;;;;;;;;;;;;;;;;;;21080059;28;20395;-78
2022/08/12 23:40:29;;;;;;;;;;;;;;;;;;21079687;28;19930;-77
2022/08/12 23:50:32;;;;;;;;;;;;;;;;;;21079688;28;19923;-57
